createdAt,value
2022-10-05T00:00:30.973Z,9.32
2022-10-05T00:02:59.331Z,9.26
2022-10-05T00:05:30.772Z,9.28
2022-10-05T00:08:05.899Z,9.29
2022-10-05T00:10:34.430Z,9.30
2022-10-05T00:13:03.843Z,9.28
2022-10-05T00:15:31.576Z,9.27
2022-10-05T00:17:59.663Z,9.21
2022-10-05T00:20:27.737Z,9.15
2022-10-05T00:22:58.577Z,9.15
2022-10-05T00:25:26.642Z,9.19
2022-10-05T00:27:58.598Z,9.21
2022-10-05T00:30:33.471Z,9.23
2022-10-05T00:33:01.252Z,9.22
2022-10-05T00:35:30.827Z,9.21
2022-10-05T00:37:58.523Z,9.16
2022-10-05T00:40:36.622Z,9.18
2022-10-05T00:43:30.587Z,9.12
2022-10-05T00:46:07.772Z,9.11
2022-10-05T00:48:42.099Z,9.06
2022-10-05T00:51:22.941Z,9.02
2022-10-05T00:53:59.171Z,8.94
2022-10-05T00:56:47.597Z,8.89
2022-10-05T00:59:26.287Z,8.93
2022-10-05T01:02:00.500Z,8.91
2022-10-05T01:04:36.472Z,8.96
2022-10-05T01:07:14.203Z,9.02
2022-10-05T01:09:51.041Z,9.01
2022-10-05T01:12:27.126Z,9.01
2022-10-05T01:15:03.482Z,9.00
2022-10-05T01:17:38.323Z,8.95
2022-10-05T01:20:28.292Z,8.94
2022-10-05T01:23:21.226Z,8.92
2022-10-05T01:26:04.089Z,8.90
2022-10-05T01:28:39.052Z,8.90
2022-10-05T01:31:14.374Z,8.86
2022-10-05T01:33:50.521Z,8.83
2022-10-05T01:36:27.516Z,8.80
2022-10-05T01:39:03.950Z,8.78
2022-10-05T01:41:39.508Z,8.76
2022-10-05T01:44:14.473Z,8.70
2022-10-05T01:46:46.970Z,8.65
2022-10-05T01:49:29.613Z,8.61
2022-10-05T01:52:08.444Z,8.60
2022-10-05T01:54:45.450Z,8.62
2022-10-05T01:57:38.475Z,8.58
2022-10-05T02:00:10.156Z,8.58
2022-10-05T02:02:42.502Z,8.54
2022-10-05T02:05:15.198Z,8.48
2022-10-05T02:07:48.459Z,8.35
2022-10-05T02:10:22.947Z,8.35
2022-10-05T02:12:55.502Z,8.30
2022-10-05T02:15:30.824Z,8.28
2022-10-05T02:18:05.492Z,8.25
2022-10-05T02:20:36.164Z,8.27
2022-10-05T02:23:07.410Z,8.28
2022-10-05T02:25:39.112Z,8.32
2022-10-05T02:28:12.500Z,8.31
2022-10-05T02:30:46.114Z,8.31
2022-10-05T02:33:20.376Z,8.29
2022-10-05T02:35:48.156Z,8.25
2022-10-05T02:38:23.165Z,8.20
2022-10-05T02:40:58.710Z,8.13
2022-10-05T02:43:40.163Z,8.12
2022-10-05T02:46:22.836Z,8.06
2022-10-05T02:49:03.658Z,7.99
2022-10-05T02:51:38.817Z,7.98
2022-10-05T02:54:15.914Z,7.95
2022-10-05T02:56:53.602Z,7.89
2022-10-05T02:59:28.044Z,7.91
2022-10-05T03:02:02.881Z,7.91
2022-10-05T03:04:40.524Z,7.91
2022-10-05T03:07:15.351Z,7.87
2022-10-05T03:09:50.401Z,7.89
2022-10-05T03:12:35.666Z,7.94
2022-10-05T03:15:18.114Z,8.01
2022-10-05T03:17:55.041Z,8.15
2022-10-05T03:20:35.212Z,8.28
2022-10-05T03:23:05.469Z,8.37
2022-10-05T03:25:53.217Z,8.45
2022-10-05T03:28:27.833Z,8.52
2022-10-05T03:31:03.950Z,8.58
2022-10-05T03:33:42.852Z,8.64
2022-10-05T03:36:22.623Z,8.68
2022-10-05T03:38:59.672Z,8.72
2022-10-05T03:41:37.298Z,8.76
2022-10-05T03:44:20.785Z,8.79
2022-10-05T03:47:04.450Z,8.82
2022-10-05T03:49:44.347Z,8.83
2022-10-05T03:52:17.278Z,8.81
2022-10-05T03:54:46.976Z,8.75
2022-10-05T03:57:16.753Z,8.72
2022-10-05T03:59:51.524Z,8.69
2022-10-05T04:02:22.666Z,8.63
2022-10-05T04:04:54.400Z,8.62
2022-10-05T04:07:28.772Z,8.59
2022-10-05T04:09:57.026Z,8.57
2022-10-05T04:12:26.409Z,8.56
2022-10-05T04:14:55.607Z,8.55
2022-10-05T04:17:28.529Z,8.55
2022-10-05T04:20:00.057Z,8.56
2022-10-05T04:22:31.753Z,8.54
2022-10-05T04:25:02.633Z,8.51
2022-10-05T04:27:33.168Z,8.48
2022-10-05T04:30:04.465Z,8.46
2022-10-05T04:32:37.650Z,8.44
2022-10-05T04:35:18.585Z,8.44
2022-10-05T04:37:51.400Z,8.37
2022-10-05T04:40:28.044Z,8.30
2022-10-05T04:43:00.808Z,8.29
2022-10-05T04:45:33.754Z,8.32
2022-10-05T04:48:12.237Z,8.31
2022-10-05T04:50:53.618Z,8.31
2022-10-05T04:53:25.738Z,8.34
2022-10-05T04:55:57.039Z,8.29
2022-10-05T04:58:30.439Z,8.23
2022-10-05T05:01:07.613Z,8.22
2022-10-05T05:03:40.995Z,8.24
2022-10-05T05:06:18.904Z,8.28
2022-10-05T05:08:57.010Z,8.31
2022-10-05T05:11:29.235Z,8.26
2022-10-05T05:14:17.979Z,8.28
2022-10-05T05:16:46.973Z,8.30
2022-10-05T05:19:29.579Z,8.27
2022-10-05T05:22:02.922Z,8.24
2022-10-05T05:24:36.485Z,8.18
2022-10-05T05:27:11.835Z,8.18
2022-10-05T05:29:46.992Z,8.20
2022-10-05T05:32:20.375Z,8.21
2022-10-05T05:34:54.877Z,8.28
2022-10-05T05:37:29.572Z,8.33
2022-10-05T05:40:04.609Z,8.32
2022-10-05T05:42:38.503Z,8.40
2022-10-05T05:45:09.309Z,8.43
2022-10-05T05:47:39.248Z,8.42
2022-10-05T05:50:17.770Z,8.48
2022-10-05T05:52:48.015Z,8.54
2022-10-05T05:55:19.390Z,8.58
2022-10-05T05:57:51.406Z,8.58
2022-10-05T06:00:21.940Z,8.61
2022-10-05T06:02:54.339Z,8.65
2022-10-05T06:05:28.280Z,8.62
2022-10-05T06:07:58.908Z,8.62
2022-10-05T06:10:30.432Z,8.64
2022-10-05T06:13:01.791Z,8.68
2022-10-05T06:15:33.594Z,8.65
2022-10-05T06:18:03.945Z,8.69
2022-10-05T06:20:36.611Z,8.68
2022-10-05T06:23:08.132Z,8.71
2022-10-05T06:25:40.564Z,8.78
2022-10-05T06:28:10.665Z,8.78
2022-10-05T06:30:44.649Z,8.82
2022-10-05T06:33:18.790Z,8.88
2022-10-05T06:35:53.660Z,8.93
2022-10-05T06:38:29.597Z,9.03
2022-10-05T06:41:04.313Z,9.09
2022-10-05T06:43:37.966Z,9.13
2022-10-05T06:46:08.540Z,9.18
2022-10-05T06:48:42.879Z,9.25
2022-10-05T06:51:12.796Z,9.28
2022-10-05T06:53:44.421Z,9.32
2022-10-05T06:56:16.493Z,9.35
2022-10-05T06:58:49.468Z,9.40
2022-10-05T07:01:21.061Z,9.47
2022-10-05T07:03:58.794Z,9.54
2022-10-05T07:06:30.000Z,9.55
2022-10-05T07:09:07.501Z,9.57
2022-10-05T07:11:54.296Z,9.63
2022-10-05T07:14:31.475Z,9.70
2022-10-05T07:17:14.709Z,9.72
2022-10-05T07:19:47.197Z,9.70
2022-10-05T07:22:29.384Z,9.74
2022-10-05T07:25:03.412Z,9.75
2022-10-05T07:27:34.056Z,9.74
2022-10-05T07:30:05.487Z,9.75
2022-10-05T07:32:36.225Z,9.79
2022-10-05T07:35:09.155Z,9.91
2022-10-05T07:37:57.839Z,10.00
2022-10-05T07:40:28.484Z,10.12
2022-10-05T07:42:59.885Z,10.24
2022-10-05T07:45:30.212Z,10.29
2022-10-05T07:47:58.482Z,10.38
2022-10-05T07:50:30.470Z,10.40
2022-10-05T07:52:59.152Z,10.43
2022-10-05T07:55:33.749Z,10.46
2022-10-05T07:58:08.516Z,10.50
2022-10-05T08:00:45.610Z,10.53
2022-10-05T08:03:17.362Z,10.57
2022-10-05T08:05:46.923Z,10.66
2022-10-05T08:08:19.837Z,10.72
2022-10-05T08:10:53.045Z,10.78
2022-10-05T08:13:23.675Z,10.84
2022-10-05T08:15:53.811Z,10.85
2022-10-05T08:18:27.261Z,10.88
2022-10-05T08:20:56.869Z,10.95
2022-10-05T08:23:26.790Z,11.08
2022-10-05T08:26:09.161Z,11.15
2022-10-05T08:28:40.553Z,11.28
2022-10-05T08:31:14.671Z,11.39
2022-10-05T08:33:50.272Z,11.43
2022-10-05T08:36:21.832Z,11.50
2022-10-05T08:38:51.148Z,11.55
2022-10-05T08:41:36.061Z,11.59
2022-10-05T08:44:15.454Z,11.66
2022-10-05T08:47:00.943Z,11.70
2022-10-05T08:49:46.204Z,11.73
2022-10-05T08:52:23.620Z,11.79
2022-10-05T08:55:05.549Z,11.87
2022-10-05T08:57:48.351Z,11.97
2022-10-05T09:00:20.095Z,12.03
2022-10-05T09:03:06.850Z,12.11
2022-10-05T09:05:47.520Z,12.26
2022-10-05T09:08:28.284Z,12.43
2022-10-05T09:11:08.173Z,12.52
2022-10-05T09:13:53.630Z,12.64
2022-10-05T09:16:39.053Z,12.75
2022-10-05T09:19:25.267Z,12.93
2022-10-05T09:21:57.713Z,13.07
2022-10-05T09:24:28.740Z,13.21
2022-10-05T09:27:01.135Z,13.46
2022-10-05T09:29:44.740Z,13.68
2022-10-05T09:32:27.891Z,13.83
2022-10-05T09:35:05.421Z,14.06
2022-10-05T09:37:45.962Z,14.32
2022-10-05T09:40:44.635Z,14.62
2022-10-05T09:43:18.925Z,15.04
2022-10-05T09:45:58.534Z,15.50
2022-10-05T09:48:44.048Z,15.92
2022-10-05T09:51:35.609Z,16.34
2022-10-05T09:54:22.212Z,16.71
2022-10-05T09:57:08.274Z,17.08
2022-10-05T09:59:51.576Z,17.47
2022-10-05T10:02:27.612Z,17.77
2022-10-05T10:05:08.683Z,17.96
2022-10-05T10:07:50.532Z,18.29
2022-10-05T10:10:36.649Z,18.43
2022-10-05T10:13:16.625Z,18.47
2022-10-05T10:15:58.911Z,18.58
2022-10-05T10:18:38.166Z,18.64
2022-10-05T10:21:20.314Z,18.83
2022-10-05T10:24:00.478Z,19.12
2022-10-05T10:26:47.608Z,19.30
2022-10-05T10:29:37.436Z,19.46
2022-10-05T10:32:13.433Z,19.64
2022-10-05T10:34:55.144Z,19.78
2022-10-05T10:37:39.396Z,20.03
2022-10-05T10:40:27.098Z,20.18
2022-10-05T10:43:15.464Z,20.35
2022-10-05T10:45:49.889Z,20.63
2022-10-05T10:48:32.305Z,20.76
2022-10-05T10:51:13.703Z,20.90
2022-10-05T10:54:02.618Z,21.16
2022-10-05T10:56:35.429Z,21.30
2022-10-05T10:59:20.622Z,21.53
2022-10-05T11:01:59.164Z,21.71
2022-10-05T11:04:45.431Z,21.97
2022-10-05T11:07:24.167Z,22.19
2022-10-05T11:10:03.879Z,22.24
2022-10-05T11:12:52.414Z,22.37
2022-10-05T11:15:33.126Z,22.46
2022-10-05T11:18:07.742Z,22.48
2022-10-05T11:20:43.992Z,22.59
2022-10-05T11:23:28.906Z,22.64
2022-10-05T11:26:05.393Z,22.78
2022-10-05T11:28:46.374Z,22.68
2022-10-05T11:31:36.679Z,22.86
2022-10-05T11:34:22.210Z,22.88
2022-10-05T11:37:04.660Z,22.97
2022-10-05T11:39:42.272Z,23.14
2022-10-05T11:42:23.852Z,23.29
2022-10-05T11:45:06.696Z,23.54
2022-10-05T11:47:38.843Z,23.58
2022-10-05T11:50:12.595Z,23.72
2022-10-05T11:52:44.929Z,23.81
2022-10-05T11:55:24.573Z,23.83
2022-10-05T11:57:54.834Z,23.94
2022-10-05T12:00:23.644Z,24.02
2022-10-05T12:03:06.561Z,24.20
2022-10-05T12:05:37.363Z,24.32
2022-10-05T12:08:16.433Z,24.31
2022-10-05T12:10:47.641Z,24.21
2022-10-05T12:13:22.694Z,24.29
2022-10-05T12:15:54.700Z,24.44
2022-10-05T12:18:24.882Z,24.53
2022-10-05T12:20:56.186Z,24.55
2022-10-05T12:23:30.306Z,24.73
2022-10-05T12:26:01.952Z,24.87
2022-10-05T12:28:34.514Z,24.84
2022-10-05T12:31:12.991Z,24.81
2022-10-05T12:33:47.123Z,24.75
2022-10-05T12:36:16.409Z,24.85
2022-10-05T12:38:47.708Z,24.90
2022-10-05T12:41:19.346Z,24.97
2022-10-05T12:43:55.953Z,25.19
2022-10-05T12:46:29.707Z,25.28
2022-10-05T12:49:08.705Z,25.40
2022-10-05T12:51:40.037Z,25.50
2022-10-05T12:54:14.433Z,25.56
2022-10-05T12:56:44.850Z,25.59
2022-10-05T12:59:20.225Z,25.63
2022-10-05T13:01:52.667Z,25.87
2022-10-05T13:04:28.714Z,25.96
2022-10-05T13:07:06.786Z,26.08
2022-10-05T13:09:39.405Z,26.09
2022-10-05T13:12:10.135Z,26.05
2022-10-05T13:14:45.742Z,26.07
2022-10-05T13:17:18.354Z,26.07
2022-10-05T13:19:47.673Z,26.15
2022-10-05T13:22:20.773Z,26.19
2022-10-05T13:24:55.431Z,26.34
2022-10-05T13:27:24.841Z,26.45
2022-10-05T13:29:56.368Z,26.45
2022-10-05T13:32:25.126Z,26.64
2022-10-05T13:34:56.288Z,26.73
2022-10-05T13:37:31.726Z,26.82
2022-10-05T13:40:06.149Z,26.82
2022-10-05T13:42:36.750Z,27.05
2022-10-05T13:45:11.563Z,27.14
2022-10-05T13:47:44.420Z,27.27
2022-10-05T13:50:18.175Z,27.25
2022-10-05T13:52:51.169Z,27.41
2022-10-05T13:55:23.722Z,27.44
2022-10-05T13:57:55.534Z,27.37
2022-10-05T14:00:26.588Z,27.17
2022-10-05T14:02:56.471Z,27.12
2022-10-05T14:05:25.034Z,27.11
2022-10-05T14:07:54.414Z,27.14
2022-10-05T14:10:33.916Z,27.04
2022-10-05T14:13:02.612Z,27.06
2022-10-05T14:15:32.193Z,26.97
2022-10-05T14:18:00.326Z,26.97
2022-10-05T14:20:31.091Z,26.96
2022-10-05T14:23:00.653Z,26.99
2022-10-05T14:25:28.767Z,26.95
2022-10-05T14:28:02.603Z,26.94
2022-10-05T14:30:31.070Z,26.75
2022-10-05T14:33:01.410Z,26.76
2022-10-05T14:35:30.398Z,26.66
2022-10-05T14:37:59.995Z,26.49
2022-10-05T14:40:29.824Z,26.49
2022-10-05T14:42:58.490Z,26.47
2022-10-05T14:45:30.487Z,26.42
2022-10-05T14:48:08.081Z,26.30
2022-10-05T14:50:49.066Z,26.14
2022-10-05T14:53:18.262Z,26.03
2022-10-05T14:56:06.661Z,26.05
2022-10-05T14:58:43.000Z,25.98
2022-10-05T15:01:15.869Z,25.95
2022-10-05T15:03:47.703Z,25.83
2022-10-05T15:06:19.818Z,25.82
2022-10-05T15:08:57.825Z,25.77
2022-10-05T15:11:32.521Z,25.69
2022-10-05T15:14:01.055Z,25.61
2022-10-05T15:16:31.643Z,25.58
2022-10-05T15:19:04.437Z,25.49
2022-10-05T15:21:42.200Z,25.41
2022-10-05T15:24:13.178Z,25.21
2022-10-05T15:26:47.283Z,25.11
2022-10-05T15:29:21.725Z,25.11
2022-10-05T15:31:55.417Z,25.02
2022-10-05T15:34:29.497Z,24.97
2022-10-05T15:37:00.924Z,24.90
2022-10-05T15:39:35.070Z,24.73
2022-10-05T15:42:04.572Z,24.70
2022-10-05T15:44:40.732Z,24.62
2022-10-05T15:47:14.420Z,24.51
2022-10-05T15:49:47.122Z,24.36
2022-10-05T15:52:19.067Z,24.28
2022-10-05T15:55:02.657Z,24.18
2022-10-05T15:57:35.893Z,24.04
2022-10-05T16:00:05.915Z,23.92
2022-10-05T16:02:40.557Z,23.82
2022-10-05T16:05:16.980Z,23.70
2022-10-05T16:08:04.216Z,23.54
2022-10-05T16:10:34.665Z,23.35
2022-10-05T16:13:10.527Z,23.18
2022-10-05T16:15:42.689Z,22.96
2022-10-05T16:18:31.258Z,22.79
2022-10-05T16:21:05.297Z,22.61
2022-10-05T16:23:36.487Z,22.42
2022-10-05T16:26:13.235Z,22.25
2022-10-05T16:28:47.449Z,22.08
2022-10-05T16:31:18.883Z,21.91
2022-10-05T16:33:54.504Z,21.74
2022-10-05T16:36:26.435Z,21.59
2022-10-05T16:38:55.866Z,21.48
2022-10-05T16:41:29.290Z,21.34
2022-10-05T16:44:03.105Z,21.21
2022-10-05T16:46:33.494Z,21.06
2022-10-05T16:49:07.386Z,20.92
2022-10-05T16:51:41.343Z,20.81
2022-10-05T16:54:17.452Z,20.69
2022-10-05T16:56:47.765Z,20.59
2022-10-05T16:59:33.530Z,20.49
2022-10-05T17:02:06.503Z,20.34
2022-10-05T17:04:41.852Z,20.23
2022-10-05T17:07:20.837Z,20.14
2022-10-05T17:10:05.627Z,20.03
2022-10-05T17:12:40.922Z,19.91
2022-10-05T17:15:15.841Z,19.89
2022-10-05T17:17:57.720Z,19.78
2022-10-05T17:20:41.587Z,19.68
2022-10-05T17:23:23.847Z,19.58
2022-10-05T17:25:55.829Z,19.50
2022-10-05T17:28:25.488Z,19.45
2022-10-05T17:31:09.462Z,19.43
2022-10-05T17:33:58.073Z,19.40
2022-10-05T17:36:37.462Z,19.41
2022-10-05T17:39:12.972Z,19.34
2022-10-05T17:41:40.572Z,19.34
2022-10-05T17:44:21.544Z,19.28
2022-10-05T17:46:49.971Z,19.21
2022-10-05T17:49:39.446Z,19.15
2022-10-05T17:52:39.069Z,19.09
2022-10-05T17:55:27.326Z,19.06
2022-10-05T17:57:58.590Z,19.04
2022-10-05T18:00:55.990Z,19.00
2022-10-05T18:03:37.782Z,18.95
2022-10-05T18:06:38.324Z,18.90
2022-10-05T18:09:17.458Z,18.93
2022-10-05T18:11:45.935Z,18.90
2022-10-05T18:14:19.109Z,18.84
2022-10-05T18:16:59.809Z,18.78
2022-10-05T18:19:32.383Z,18.77
2022-10-05T18:22:01.190Z,18.70
2022-10-05T18:24:56.000Z,18.63
2022-10-05T18:27:31.734Z,18.56
2022-10-05T18:30:05.151Z,18.49
2022-10-05T18:32:45.319Z,18.43
2022-10-05T18:35:15.810Z,18.39
2022-10-05T18:37:47.715Z,18.38
2022-10-05T18:40:25.639Z,18.35
2022-10-05T18:42:57.183Z,18.32
2022-10-05T18:45:27.095Z,18.28
2022-10-05T18:48:00.293Z,18.20
2022-10-05T18:50:30.162Z,18.19
2022-10-05T18:53:11.789Z,18.13
2022-10-05T18:55:44.372Z,18.08
2022-10-05T18:58:17.638Z,18.04
2022-10-05T19:01:00.144Z,18.02
2022-10-05T19:03:30.424Z,18.07
2022-10-05T19:06:04.487Z,18.06
2022-10-05T19:08:37.829Z,18.10
2022-10-05T19:11:14.393Z,18.12
2022-10-05T19:13:46.800Z,18.17
2022-10-05T19:16:24.789Z,18.20
2022-10-05T19:19:04.993Z,18.20
2022-10-05T19:21:39.365Z,18.18
2022-10-05T19:24:17.495Z,18.15
2022-10-05T19:27:04.554Z,18.15
2022-10-05T19:29:43.955Z,18.11
2022-10-05T19:32:18.552Z,18.06
2022-10-05T19:34:56.074Z,18.01
2022-10-05T19:37:31.172Z,17.99
2022-10-05T19:40:07.244Z,17.96
2022-10-05T19:42:47.353Z,17.91
2022-10-05T19:45:19.118Z,17.86
2022-10-05T19:47:53.191Z,17.82
2022-10-05T19:50:22.220Z,17.79
2022-10-05T19:52:51.576Z,17.75
2022-10-05T19:55:26.463Z,17.70
2022-10-05T19:57:56.786Z,17.70
2022-10-05T20:00:25.666Z,17.64
2022-10-05T20:02:53.358Z,17.62
2022-10-05T20:05:20.904Z,17.60
2022-10-05T20:07:48.433Z,17.59
2022-10-05T20:10:24.421Z,17.57
2022-10-05T20:12:53.180Z,17.52
2022-10-05T20:15:40.633Z,17.47
2022-10-05T20:18:47.440Z,17.37
2022-10-05T20:21:29.781Z,17.30
2022-10-05T20:24:10.635Z,17.26
2022-10-05T20:26:56.145Z,17.20
2022-10-05T20:29:23.698Z,17.12
2022-10-05T20:31:52.618Z,17.04
2022-10-05T20:34:21.620Z,17.00
2022-10-05T20:36:49.674Z,16.96
2022-10-05T20:39:18.259Z,16.88
2022-10-05T20:41:46.202Z,16.82
2022-10-05T20:44:14.197Z,16.79
2022-10-05T20:46:42.134Z,16.76
2022-10-05T20:49:11.539Z,16.67
2022-10-05T20:51:40.094Z,16.62
2022-10-05T20:54:08.302Z,16.55
2022-10-05T20:56:36.074Z,16.47
2022-10-05T20:59:03.625Z,16.43
2022-10-05T21:01:31.881Z,16.39
2022-10-05T21:03:59.857Z,16.32
2022-10-05T21:06:29.432Z,16.29
2022-10-05T21:08:56.982Z,16.26
2022-10-05T21:11:24.550Z,16.23
2022-10-05T21:13:53.709Z,16.19
2022-10-05T21:16:23.376Z,16.15
2022-10-05T21:18:50.923Z,16.23
2022-10-05T21:21:18.761Z,16.24
2022-10-05T21:23:48.628Z,16.26
2022-10-05T21:26:16.367Z,16.30
2022-10-05T21:28:44.092Z,16.30
2022-10-05T21:31:11.756Z,16.50
2022-10-05T21:33:39.285Z,16.57
2022-10-05T21:36:06.882Z,16.65
2022-10-05T21:38:34.411Z,16.66
2022-10-05T21:41:03.275Z,16.70
2022-10-05T21:43:31.143Z,16.82
2022-10-05T21:45:59.059Z,16.87
2022-10-05T21:48:27.583Z,16.89
2022-10-05T21:50:55.392Z,16.89
2022-10-05T21:53:25.982Z,16.95
2022-10-05T21:55:54.079Z,16.91
2022-10-05T21:58:23.698Z,16.87
2022-10-05T22:00:51.283Z,16.82
2022-10-05T22:03:18.793Z,16.81
2022-10-05T22:05:46.498Z,16.77
2022-10-05T22:08:19.893Z,16.73
2022-10-05T22:10:47.391Z,16.69
2022-10-05T22:13:14.903Z,16.65
2022-10-05T22:15:43.780Z,16.59
2022-10-05T22:18:16.421Z,16.56
2022-10-05T22:20:44.049Z,16.50
2022-10-05T22:23:12.340Z,16.46
2022-10-05T22:25:39.930Z,16.41
2022-10-05T22:28:09.757Z,16.37
2022-10-05T22:30:38.366Z,16.33
2022-10-05T22:33:08.580Z,16.30
2022-10-05T22:35:36.353Z,16.25
2022-10-05T22:38:04.364Z,16.22
2022-10-05T22:40:32.019Z,16.21
2022-10-05T22:42:59.635Z,16.20
2022-10-05T22:45:32.314Z,16.20
2022-10-05T22:48:00.222Z,16.20
2022-10-05T22:50:29.246Z,16.18
2022-10-05T22:52:56.750Z,16.18
2022-10-05T22:55:24.554Z,16.17
2022-10-05T22:57:52.039Z,16.15
2022-10-05T23:00:24.687Z,16.17
2022-10-05T23:02:56.303Z,16.17
2022-10-05T23:05:23.857Z,16.18
2022-10-05T23:07:52.843Z,16.17
2022-10-05T23:10:20.814Z,16.18
2022-10-05T23:12:59.677Z,16.17
2022-10-05T23:15:28.215Z,16.15
2022-10-05T23:17:56.165Z,16.13
2022-10-05T23:20:24.522Z,16.08
2022-10-05T23:22:53.778Z,16.03
2022-10-05T23:25:22.188Z,15.99
2022-10-05T23:27:49.758Z,15.96
2022-10-05T23:30:17.344Z,15.89
2022-10-05T23:32:45.531Z,15.87
2022-10-05T23:35:13.868Z,15.84
2022-10-05T23:37:41.754Z,15.82
2022-10-05T23:40:12.931Z,15.81
2022-10-05T23:42:40.776Z,15.80
2022-10-05T23:45:09.112Z,15.76
2022-10-05T23:47:36.651Z,15.73
2022-10-05T23:50:04.609Z,15.71
2022-10-05T23:52:32.153Z,15.70
2022-10-05T23:54:59.651Z,15.78
2022-10-05T23:57:28.506Z,15.81
2022-10-05T23:59:56.357Z,15.82
